sensor_id;sensor_type;location;lat;lon;timestamp;pressure;altitude;pressure_sealevel;temperature;humidity
46690;BME280;32423;45.398;10.874;2022-12-07T00:00:50;100624.31;;;6.46;69.54
46690;BME280;32423;45.398;10.874;2022-12-07T00:03:35;100614.16;;;6.38;69.23
46690;BME280;32423;45.398;10.874;2022-12-07T00:06:19;100622.28;;;6.38;68.97
46690;BME280;32423;45.398;10.874;2022-12-07T00:09:04;100628.84;;;6.51;68.49
46690;BME280;32423;45.398;10.874;2022-12-07T00:11:50;100625.13;;;6.47;68.24
46690;BME280;32423;45.398;10.874;2022-12-07T00:14:35;100616.44;;;6.50;68.65
46690;BME280;32423;45.398;10.874;2022-12-07T00:17:19;100607.22;;;6.51;68.92
46690;BME280;32423;45.398;10.874;2022-12-07T00:20:04;100604.47;;;6.56;69.08
46690;BME280;32423;45.398;10.874;2022-12-07T00:22:49;100611.91;;;6.45;69.99
46690;BME280;32423;45.398;10.874;2022-12-07T00:25:33;100603.22;;;6.48;69.45
46690;BME280;32423;45.398;10.874;2022-12-07T00:28:18;100616.06;;;6.56;69.85
46690;BME280;32423;45.398;10.874;2022-12-07T00:31:06;100610.31;;;6.63;69.73
46690;BME280;32423;45.398;10.874;2022-12-07T00:33:51;100610.31;;;6.81;70.58
46690;BME280;32423;45.398;10.874;2022-12-07T00:36:35;100611.78;;;6.93;68.69
46690;BME280;32423;45.398;10.874;2022-12-07T00:39:20;100606.97;;;6.90;68.51
46690;BME280;32423;45.398;10.874;2022-12-07T00:42:04;100607.84;;;6.85;68.51
46690;BME280;32423;45.398;10.874;2022-12-07T00:44:48;100610.91;;;6.97;68.17
46690;BME280;32423;45.398;10.874;2022-12-07T00:47:33;100608.56;;;7.09;67.17
46690;BME280;32423;45.398;10.874;2022-12-07T00:50:17;100617.09;;;6.98;67.16
46690;BME280;32423;45.398;10.874;2022-12-07T00:53:01;100599.19;;;7.02;66.96
46690;BME280;32423;45.398;10.874;2022-12-07T00:55:47;100604.84;;;6.86;67.36
46690;BME280;32423;45.398;10.874;2022-12-07T00:58:31;100599.22;;;6.64;67.72
46690;BME280;32423;45.398;10.874;2022-12-07T01:01:15;100601.06;;;6.69;67.49
46690;BME280;32423;45.398;10.874;2022-12-07T01:04:00;100597.47;;;6.73;66.89
46690;BME280;32423;45.398;10.874;2022-12-07T01:06:47;100595.28;;;6.75;66.40
46690;BME280;32423;45.398;10.874;2022-12-07T01:09:32;100598.28;;;6.74;65.95
46690;BME280;32423;45.398;10.874;2022-12-07T01:12:16;100594.41;;;6.61;66.26
46690;BME280;32423;45.398;10.874;2022-12-07T01:15:01;100590.31;;;6.64;66.80
46690;BME280;32423;45.398;10.874;2022-12-07T01:17:45;100591.94;;;6.65;66.67
46690;BME280;32423;45.398;10.874;2022-12-07T01:20:29;100597.09;;;6.61;67.70
46690;BME280;32423;45.398;10.874;2022-12-07T01:23:14;100594.41;;;6.61;67.50
46690;BME280;32423;45.398;10.874;2022-12-07T01:25:59;100596.00;;;6.62;66.93
46690;BME280;32423;45.398;10.874;2022-12-07T01:28:44;100596.00;;;6.62;67.18
46690;BME280;32423;45.398;10.874;2022-12-07T01:31:29;100599.66;;;6.71;66.09
46690;BME280;32423;45.398;10.874;2022-12-07T01:34:14;100595.88;;;6.54;66.85
46690;BME280;32423;45.398;10.874;2022-12-07T01:36:58;100602.34;;;6.71;65.54
46690;BME280;32423;45.398;10.874;2022-12-07T01:39:43;100596.50;;;6.45;65.82
46690;BME280;32423;45.398;10.874;2022-12-07T01:42:27;100602.88;;;6.55;66.00
46690;BME280;32423;45.398;10.874;2022-12-07T01:48:03;100597.63;;;6.63;65.99
46690;BME280;32423;45.398;10.874;2022-12-07T01:50:48;100594.41;;;6.61;66.16
46690;BME280;32423;45.398;10.874;2022-12-07T01:53:34;100589.94;;;6.52;66.51
46690;BME280;32423;45.398;10.874;2022-12-07T01:56:20;100579.44;;;6.69;64.39
46690;BME280;32423;45.398;10.874;2022-12-07T01:59:08;100598.28;;;6.55;64.96
46690;BME280;32423;45.398;10.874;2022-12-07T02:01:53;100594.91;;;6.44;65.09
46690;BME280;32423;45.398;10.874;2022-12-07T02:04:38;100597.69;;;6.39;65.08
46690;BME280;32423;45.398;10.874;2022-12-07T02:07:23;100587.91;;;6.43;64.55
46690;BME280;32423;45.398;10.874;2022-12-07T02:10:13;100584.44;;;6.19;66.38
46690;BME280;32423;45.398;10.874;2022-12-07T02:12:58;100571.53;;;6.35;65.22
46690;BME280;32423;45.398;10.874;2022-12-07T02:30:19;100578.50;;;6.17;66.88
46690;BME280;32423;45.398;10.874;2022-12-07T02:33:05;100564.50;;;6.15;66.46
46690;BME280;32423;45.398;10.874;2022-12-07T02:38:53;100567.16;;;5.96;67.38
46690;BME280;32423;45.398;10.874;2022-12-07T02:41:42;100569.31;;;5.71;69.79
46690;BME280;32423;45.398;10.874;2022-12-07T02:44:28;100575.19;;;6.01;67.66
46690;BME280;32423;45.398;10.874;2022-12-07T02:47:15;100568.59;;;6.13;66.28
46690;BME280;32423;45.398;10.874;2022-12-07T02:50:03;100574.00;;;6.31;66.70
46690;BME280;32423;45.398;10.874;2022-12-07T02:52:48;100569.94;;;6.34;67.18
46690;BME280;32423;45.398;10.874;2022-12-07T02:55:34;100565.94;;;6.08;67.04
46690;BME280;32423;45.398;10.874;2022-12-07T03:07:00;100578.84;;;6.34;67.18
46690;BME280;32423;45.398;10.874;2022-12-07T03:12:36;100577.50;;;6.32;67.20
46690;BME280;32423;45.398;10.874;2022-12-07T03:15:29;100564.22;;;6.35;66.99
46690;BME280;32423;45.398;10.874;2022-12-07T03:18:16;100572.38;;;6.30;67.46
46690;BME280;32423;45.398;10.874;2022-12-07T03:21:04;100564.66;;;6.24;67.47
46690;BME280;32423;45.398;10.874;2022-12-07T03:23:51;100550.66;;;6.40;66.58
46690;BME280;32423;45.398;10.874;2022-12-07T03:26:38;100555.59;;;6.15;65.47
46690;BME280;32423;45.398;10.874;2022-12-07T03:29:27;100542.03;;;6.20;66.94
46690;BME280;32423;45.398;10.874;2022-12-07T03:32:14;100544.47;;;5.97;67.39
46690;BME280;32423;45.398;10.874;2022-12-07T03:40:54;100531.47;;;5.99;67.89
46690;BME280;32423;45.398;10.874;2022-12-07T03:43:41;100524.44;;;6.04;67.36
46690;BME280;32423;45.398;10.874;2022-12-07T03:55:19;100516.06;;;6.24;66.95
46690;BME280;32423;45.398;10.874;2022-12-07T03:58:07;100514.47;;;6.23;66.78
46690;BME280;32423;45.398;10.874;2022-12-07T04:00:53;100502.53;;;6.05;67.71
46690;BME280;32423;45.398;10.874;2022-12-07T04:03:37;100502.09;;;5.98;67.87
46690;BME280;32423;45.398;10.874;2022-12-07T04:06:22;100520.84;;;5.84;67.59
46690;BME280;32423;45.398;10.874;2022-12-07T04:09:06;100520.53;;;5.91;69.11
46690;BME280;32423;45.398;10.874;2022-12-07T04:11:51;100516.84;;;6.06;68.81
46690;BME280;32423;45.398;10.874;2022-12-07T04:14:36;100523.50;;;6.13;68.44
46690;BME280;32423;45.398;10.874;2022-12-07T04:17:20;100518.31;;;6.17;67.57
46690;BME280;32423;45.398;10.874;2022-12-07T04:20:05;100514.53;;;6.18;68.19
46690;BME280;32423;45.398;10.874;2022-12-07T04:22:50;100520.28;;;6.30;68.96
46690;BME280;32423;45.398;10.874;2022-12-07T04:25:34;100520.59;;;6.28;68.20
46690;BME280;32423;45.398;10.874;2022-12-07T04:28:19;100515.09;;;6.15;68.11
46690;BME280;32423;45.398;10.874;2022-12-07T04:31:03;100517.22;;;6.18;69.22
46690;BME280;32423;45.398;10.874;2022-12-07T04:33:47;100513.72;;;6.17;69.51
46690;BME280;32423;45.398;10.874;2022-12-07T04:36:32;100510.28;;;6.12;69.12
46690;BME280;32423;45.398;10.874;2022-12-07T04:39:19;100506.22;;;6.14;68.84
46690;BME280;32423;45.398;10.874;2022-12-07T04:42:04;100505.03;;;6.20;69.71
46690;BME280;32423;45.398;10.874;2022-12-07T04:44:49;100502.41;;;6.15;70.28
46690;BME280;32423;45.398;10.874;2022-12-07T04:47:33;100504.28;;;6.15;69.45
46690;BME280;32423;45.398;10.874;2022-12-07T04:50:18;100512.47;;;6.10;68.97
46690;BME280;32423;45.398;10.874;2022-12-07T04:53:02;100512.09;;;5.97;69.26
46690;BME280;32423;45.398;10.874;2022-12-07T04:55:46;100515.59;;;5.98;70.21
46690;BME280;32423;45.398;10.874;2022-12-07T04:58:31;100518.38;;;5.93;68.81
46690;BME280;32423;45.398;10.874;2022-12-07T05:01:16;100524.25;;;5.95;69.09
46690;BME280;32423;45.398;10.874;2022-12-07T05:04:01;100521.94;;;5.88;69.34
46690;BME280;32423;45.398;10.874;2022-12-07T05:06:45;100533.31;;;5.80;69.43
46690;BME280;32423;45.398;10.874;2022-12-07T05:09:29;100524.94;;;5.82;68.93
46690;BME280;32423;45.398;10.874;2022-12-07T05:12:14;100521.50;;;5.76;69.64
46690;BME280;32423;45.398;10.874;2022-12-07T05:14:58;100517.19;;;5.75;68.77
46690;BME280;32423;45.398;10.874;2022-12-07T05:17:43;100512.88;;;5.74;68.98
46690;BME280;32423;45.398;10.874;2022-12-07T05:20:27;100498.72;;;5.40;69.13
46690;BME280;32423;45.398;10.874;2022-12-07T05:23:12;100509.53;;;5.35;69.37
46690;BME280;32423;45.398;10.874;2022-12-07T05:25:56;100506.69;;;5.50;69.24
46690;BME280;32423;45.398;10.874;2022-12-07T05:28:41;100496.75;;;5.45;70.15
46690;BME280;32423;45.398;10.874;2022-12-07T05:31:26;100502.13;;;5.22;68.52
46690;BME280;32423;45.398;10.874;2022-12-07T05:34:10;100503.28;;;5.15;70.17
46690;BME280;32423;45.398;10.874;2022-12-07T05:36:55;100503.88;;;5.36;71.09
46690;BME280;32423;45.398;10.874;2022-12-07T05:39:40;100497.03;;;5.44;67.26
46690;BME280;32423;45.398;10.874;2022-12-07T05:42:26;100503.28;;;5.39;67.72
46690;BME280;32423;45.398;10.874;2022-12-07T05:45:11;100498.84;;;5.53;66.65
46690;BME280;32423;45.398;10.874;2022-12-07T05:47:55;100501.19;;;5.36;66.42
46690;BME280;32423;45.398;10.874;2022-12-07T05:50:40;100511.16;;;5.36;66.98
46690;BME280;32423;45.398;10.874;2022-12-07T05:53:24;100510.28;;;5.40;66.71
46690;BME280;32423;45.398;10.874;2022-12-07T05:56:09;100504.50;;;5.28;67.56
46690;BME280;32423;45.398;10.874;2022-12-07T05:58:53;100507.69;;;5.30;67.68
46690;BME280;32423;45.398;10.874;2022-12-07T06:02:01;100506.66;;;5.26;68.01
46690;BME280;32423;45.398;10.874;2022-12-07T06:04:46;100512.34;;;5.25;68.83
46690;BME280;32423;45.398;10.874;2022-12-07T06:07:31;100505.38;;;5.18;68.32
46690;BME280;32423;45.398;10.874;2022-12-07T06:10:15;100505.63;;;4.93;67.43
46690;BME280;32423;45.398;10.874;2022-12-07T06:13:01;100513.44;;;4.95;67.89
46690;BME280;32423;45.398;10.874;2022-12-07T06:15:47;100516.97;;;4.90;67.51
46690;BME280;32423;45.398;10.874;2022-12-07T06:18:31;100515.53;;;4.98;66.98
46690;BME280;32423;45.398;10.874;2022-12-07T06:21:15;100521.69;;;5.03;66.31
46690;BME280;32423;45.398;10.874;2022-12-07T06:24:00;100517.72;;;4.96;66.02
46690;BME280;32423;45.398;10.874;2022-12-07T06:26:45;100512.16;;;4.87;66.13
46690;BME280;32423;45.398;10.874;2022-12-07T06:29:30;100514.81;;;4.92;66.05
46690;BME280;32423;45.398;10.874;2022-12-07T06:32:15;100521.28;;;4.91;66.54
46690;BME280;32423;45.398;10.874;2022-12-07T06:34:59;100522.84;;;4.97;67.58
46690;BME280;32423;45.398;10.874;2022-12-07T06:37:44;100516.94;;;4.95;66.77
46690;BME280;32423;45.398;10.874;2022-12-07T06:40:28;100523.97;;;4.91;66.23
46690;BME280;32423;45.398;10.874;2022-12-07T06:43:12;100533.72;;;4.87;66.07
46690;BME280;32423;45.398;10.874;2022-12-07T06:45:57;100530.41;;;4.95;65.06
46690;BME280;32423;45.398;10.874;2022-12-07T06:48:41;100533.78;;;4.77;65.36
46690;BME280;32423;45.398;10.874;2022-12-07T06:51:28;100534.91;;;4.71;65.70
46690;BME280;32423;45.398;10.874;2022-12-07T06:54:14;100532.25;;;4.66;64.64
46690;BME280;32423;45.398;10.874;2022-12-07T06:56:59;100538.22;;;4.58;65.36
46690;BME280;32423;45.398;10.874;2022-12-07T06:59:43;100534.00;;;4.47;65.37
46690;BME280;32423;45.398;10.874;2022-12-07T07:02:28;100540.97;;;4.48;66.61
46690;BME280;32423;45.398;10.874;2022-12-07T07:05:13;100541.94;;;4.67;65.34
46690;BME280;32423;45.398;10.874;2022-12-07T07:07:58;100548.09;;;4.67;65.51
46690;BME280;32423;45.398;10.874;2022-12-07T07:10:42;100540.34;;;4.66;65.84
46690;BME280;32423;45.398;10.874;2022-12-07T07:13:27;100548.41;;;4.66;65.50
46690;BME280;32423;45.398;10.874;2022-12-07T07:16:13;100547.38;;;4.62;64.58
46690;BME280;32423;45.398;10.874;2022-12-07T07:18:58;100544.91;;;4.65;66.14
46690;BME280;32423;45.398;10.874;2022-12-07T07:21:42;100544.78;;;4.81;65.79
46690;BME280;32423;45.398;10.874;2022-12-07T07:24:27;100551.31;;;4.74;64.28
46690;BME280;32423;45.398;10.874;2022-12-07T07:27:37;100555.31;;;4.82;65.24
46690;BME280;32423;45.398;10.874;2022-12-07T07:30:21;100551.81;;;4.82;65.47
46690;BME280;32423;45.398;10.874;2022-12-07T07:33:06;100551.25;;;4.80;65.54
46690;BME280;32423;45.398;10.874;2022-12-07T07:35:51;100552.09;;;4.75;65.43
46690;BME280;32423;45.398;10.874;2022-12-07T07:38:35;100552.91;;;4.76;65.09
46690;BME280;32423;45.398;10.874;2022-12-07T07:41:20;100556.97;;;4.73;64.84
46690;BME280;32423;45.398;10.874;2022-12-07T07:44:04;100563.16;;;4.73;65.13
46690;BME280;32423;45.398;10.874;2022-12-07T07:46:49;100558.03;;;4.77;65.52
46690;BME280;32423;45.398;10.874;2022-12-07T07:49:33;100558.84;;;4.72;65.45
46690;BME280;32423;45.398;10.874;2022-12-07T07:52:17;100549.41;;;4.75;65.59
46690;BME280;32423;45.398;10.874;2022-12-07T07:55:02;100558.03;;;4.77;65.52
46690;BME280;32423;45.398;10.874;2022-12-07T07:57:46;100554.22;;;4.78;65.59
46690;BME280;32423;45.398;10.874;2022-12-07T08:00:31;100566.03;;;4.87;65.49
46690;BME280;32423;45.398;10.874;2022-12-07T08:03:15;100564.94;;;4.88;65.93
46690;BME280;32423;45.398;10.874;2022-12-07T08:06:00;100565.44;;;4.95;65.62
46690;BME280;32423;45.398;10.874;2022-12-07T08:08:46;100570.34;;;4.83;66.49
46690;BME280;32423;45.398;10.874;2022-12-07T08:11:30;100568.03;;;5.05;69.09
46690;BME280;32423;45.398;10.874;2022-12-07T08:14:15;100560.63;;;4.48;67.84
46690;BME280;32423;45.398;10.874;2022-12-07T08:16:59;100572.59;;;4.22;69.92
46690;BME280;32423;45.398;10.874;2022-12-07T08:19:44;100573.41;;;4.22;69.93
46690;BME280;32423;45.398;10.874;2022-12-07T08:22:28;100569.88;;;4.32;71.48
46690;BME280;32423;45.398;10.874;2022-12-07T08:25:13;100567.94;;;4.38;70.27
46690;BME280;32423;45.398;10.874;2022-12-07T08:27:57;100573.94;;;4.24;71.19
46690;BME280;32423;45.398;10.874;2022-12-07T08:30:42;100577.28;;;4.01;71.81
46690;BME280;32423;45.398;10.874;2022-12-07T08:33:26;100588.84;;;4.02;73.80
46690;BME280;32423;45.398;10.874;2022-12-07T08:36:11;100587.22;;;4.06;73.19
46690;BME280;32423;45.398;10.874;2022-12-07T08:38:56;100590.41;;;4.13;73.62
46690;BME280;32423;45.398;10.874;2022-12-07T08:41:45;100596.38;;;4.05;73.71
46690;BME280;32423;45.398;10.874;2022-12-07T08:44:30;100591.53;;;3.97;75.01
46690;BME280;32423;45.398;10.874;2022-12-07T08:47:15;100597.47;;;3.99;74.56
46690;BME280;32423;45.398;10.874;2022-12-07T08:56:56;100600.13;;;4.09;74.49
46690;BME280;32423;45.398;10.874;2022-12-07T09:26:09;100577.34;;;4.84;72.59
46690;BME280;32423;45.398;10.874;2022-12-07T09:28:54;100577.44;;;4.74;73.85
46690;BME280;32423;45.398;10.874;2022-12-07T09:31:40;100578.91;;;4.95;72.71
46690;BME280;32423;45.398;10.874;2022-12-07T09:37:51;100579.66;;;5.01;73.14
46690;BME280;32423;45.398;10.874;2022-12-07T09:46:31;100585.59;;;5.32;72.38
46690;BME280;32423;45.398;10.874;2022-12-07T09:49:24;100576.25;;;4.90;74.41
46690;BME280;32423;45.398;10.874;2022-12-07T09:52:19;100576.47;;;5.28;73.47
46690;BME280;32423;45.398;10.874;2022-12-07T10:39:40;100539.22;;;8.28;67.31
46690;BME280;32423;45.398;10.874;2022-12-07T10:42:30;100535.63;;;8.32;67.84
46690;BME280;32423;45.398;10.874;2022-12-07T10:45:17;100532.78;;;8.24;69.16
46690;BME280;32423;45.398;10.874;2022-12-07T11:07:34;100531.09;;;8.28;67.24
46690;BME280;32423;45.398;10.874;2022-12-07T11:13:40;100517.88;;;7.99;68.19
46690;BME280;32423;45.398;10.874;2022-12-07T11:16:42;100512.38;;;8.18;68.67
46690;BME280;32423;45.398;10.874;2022-12-07T11:28:35;100500.16;;;8.78;68.64
46690;BME280;32423;45.398;10.874;2022-12-07T11:31:26;100495.88;;;8.86;67.96
46690;BME280;32423;45.398;10.874;2022-12-07T11:34:15;100493.19;;;8.86;67.47
46690;BME280;32423;45.398;10.874;2022-12-07T11:37:03;100489.72;;;8.72;67.43
46690;BME280;32423;45.398;10.874;2022-12-07T11:39:59;100496.00;;;9.03;67.66
46690;BME280;32423;45.398;10.874;2022-12-07T11:42:46;100489.34;;;9.09;67.93
46690;BME280;32423;45.398;10.874;2022-12-07T11:45:34;100490.53;;;9.25;67.78
46690;BME280;32423;45.398;10.874;2022-12-07T11:51:09;100480.06;;;9.10;66.24
46690;BME280;32423;45.398;10.874;2022-12-07T11:53:57;100476.69;;;9.35;68.24
46690;BME280;32423;45.398;10.874;2022-12-07T11:56:43;100481.22;;;9.49;65.63
46690;BME280;32423;45.398;10.874;2022-12-07T11:59:30;100475.84;;;9.66;66.68
46690;BME280;32423;45.398;10.874;2022-12-07T12:02:18;100479.84;;;9.60;66.69
46690;BME280;32423;45.398;10.874;2022-12-07T12:05:12;100470.38;;;9.49;65.49
46690;BME280;32423;45.398;10.874;2022-12-07T12:11:00;100462.94;;;9.23;67.13
46690;BME280;32423;45.398;10.874;2022-12-07T12:16:41;100451.13;;;9.28;66.78
46690;BME280;32423;45.398;10.874;2022-12-07T12:19:36;100449.06;;;9.73;67.70
46690;BME280;32423;45.398;10.874;2022-12-07T12:22:23;100442.81;;;9.81;66.48
46690;BME280;32423;45.398;10.874;2022-12-07T12:25:21;100441.97;;;10.28;67.12
46690;BME280;32423;45.398;10.874;2022-12-07T12:28:15;100434.28;;;10.39;66.42
46690;BME280;32423;45.398;10.874;2022-12-07T12:33:51;100439.56;;;10.61;65.51
46690;BME280;32423;45.398;10.874;2022-12-07T12:36:43;100435.69;;;10.62;66.03
46690;BME280;32423;45.398;10.874;2022-12-07T12:39:28;100435.47;;;10.93;66.00
46690;BME280;32423;45.398;10.874;2022-12-07T12:42:18;100439.75;;;11.49;65.63
46690;BME280;32423;45.398;10.874;2022-12-07T12:45:04;100427.31;;;11.02;63.19
46690;BME280;32423;45.398;10.874;2022-12-07T12:47:59;100435.78;;;11.47;64.06
46690;BME280;32423;45.398;10.874;2022-12-07T12:50:43;100430.22;;;11.64;62.27
46690;BME280;32423;45.398;10.874;2022-12-07T12:53:28;100432.44;;;11.41;62.38
46690;BME280;32423;45.398;10.874;2022-12-07T13:07:55;100422.09;;;11.55;59.68
46690;BME280;32423;45.398;10.874;2022-12-07T13:10:42;100415.13;;;11.75;60.14
46690;BME280;32423;45.398;10.874;2022-12-07T13:13:31;100415.44;;;11.74;59.53
46690;BME280;32423;45.398;10.874;2022-12-07T13:19:00;100407.97;;;11.91;58.74
46690;BME280;32423;45.398;10.874;2022-12-07T13:21:44;100406.09;;;12.04;58.57
46690;BME280;32423;45.398;10.874;2022-12-07T13:24:29;100402.94;;;12.02;58.43
46690;BME280;32423;45.398;10.874;2022-12-07T13:27:15;100412.63;;;12.12;58.45
46690;BME280;32423;45.398;10.874;2022-12-07T13:30:00;100403.38;;;12.25;59.39
46690;BME280;32423;45.398;10.874;2022-12-07T13:32:52;100408.44;;;12.80;58.26
46690;BME280;32423;45.398;10.874;2022-12-07T13:35:37;100413.56;;;12.81;57.82
46690;BME280;32423;45.398;10.874;2022-12-07T13:38:35;100410.09;;;12.60;57.73
46690;BME280;32423;45.398;10.874;2022-12-07T13:41:22;100404.47;;;12.44;57.87
46690;BME280;32423;45.398;10.874;2022-12-07T13:44:11;100401.63;;;12.41;57.80
46690;BME280;32423;45.398;10.874;2022-12-07T13:49:52;100396.59;;;12.31;57.81
46690;BME280;32423;45.398;10.874;2022-12-07T13:52:42;100391.81;;;12.28;58.36
46690;BME280;32423;45.398;10.874;2022-12-07T13:55:28;100388.78;;;12.09;58.19
46690;BME280;32423;45.398;10.874;2022-12-07T13:58:13;100398.69;;;12.13;57.96
46690;BME280;32423;45.398;10.874;2022-12-07T14:00:58;100392.47;;;12.04;58.30
46690;BME280;32423;45.398;10.874;2022-12-07T14:03:43;100401.06;;;12.15;58.00
46690;BME280;32423;45.398;10.874;2022-12-07T14:06:27;100401.59;;;12.08;58.22
46690;BME280;32423;45.398;10.874;2022-12-07T14:12:05;100396.41;;;11.94;58.25
46690;BME280;32423;45.398;10.874;2022-12-07T14:14:51;100400.88;;;11.70;59.09
46690;BME280;32423;45.398;10.874;2022-12-07T14:17:35;100407.19;;;11.53;59.49
46690;BME280;32423;45.398;10.874;2022-12-07T14:20:30;100401.50;;;11.46;60.07
46690;BME280;32423;45.398;10.874;2022-12-07T14:23:22;100399.50;;;11.26;60.73
46690;BME280;32423;45.398;10.874;2022-12-07T14:26:12;100396.94;;;11.29;60.54
46690;BME280;32423;45.398;10.874;2022-12-07T14:29:19;100398.09;;;11.20;60.85
46690;BME280;32423;45.398;10.874;2022-12-07T14:35:12;100395.59;;;10.97;61.49
46690;BME280;32423;45.398;10.874;2022-12-07T14:37:56;100402.19;;;10.96;61.43
46690;BME280;32423;45.398;10.874;2022-12-07T14:40:41;100408.31;;;10.85;61.76
46690;BME280;32423;45.398;10.874;2022-12-07T14:43:26;100397.28;;;10.81;61.90
46690;BME280;32423;45.398;10.874;2022-12-07T14:46:10;100412.03;;;10.71;62.39
46690;BME280;32423;45.398;10.874;2022-12-07T14:48:54;100409.31;;;10.63;62.54
46690;BME280;32423;45.398;10.874;2022-12-07T14:51:41;100407.72;;;10.53;62.96
46690;BME280;32423;45.398;10.874;2022-12-07T14:54:27;100416.34;;;10.47;62.97
46690;BME280;32423;45.398;10.874;2022-12-07T14:57:15;100417.66;;;10.41;63.35
46690;BME280;32423;45.398;10.874;2022-12-07T14:59:59;100410.94;;;10.38;63.00
46690;BME280;32423;45.398;10.874;2022-12-07T15:02:44;100407.59;;;10.33;62.91
46690;BME280;32423;45.398;10.874;2022-12-07T15:05:29;100417.50;;;10.28;62.88
46690;BME280;32423;45.398;10.874;2022-12-07T15:08:14;100412.34;;;10.01;63.78
46690;BME280;32423;45.398;10.874;2022-12-07T15:10:59;100416.34;;;10.12;63.49
46690;BME280;32423;45.398;10.874;2022-12-07T15:13:44;100420.19;;;9.94;64.13
46690;BME280;32423;45.398;10.874;2022-12-07T15:16:49;100416.97;;;10.01;63.75
46690;BME280;32423;45.398;10.874;2022-12-07T15:19:34;100419.84;;;9.96;63.70
46690;BME280;32423;45.398;10.874;2022-12-07T15:22:18;100426.72;;;9.93;64.11
46690;BME280;32423;45.398;10.874;2022-12-07T15:25:03;100428.59;;;9.75;63.92
46690;BME280;32423;45.398;10.874;2022-12-07T15:27:49;100428.59;;;9.67;64.42
46690;BME280;32423;45.398;10.874;2022-12-07T15:30:33;100427.28;;;9.56;64.56
46690;BME280;32423;45.398;10.874;2022-12-07T15:33:17;100436.50;;;9.37;64.75
46690;BME280;32423;45.398;10.874;2022-12-07T15:36:02;100442.34;;;9.22;65.61
46690;BME280;32423;45.398;10.874;2022-12-07T15:38:47;100437.69;;;9.14;65.60
46690;BME280;32423;45.398;10.874;2022-12-07T15:41:33;100439.13;;;8.89;66.32
46690;BME280;32423;45.398;10.874;2022-12-07T15:44:18;100438.81;;;8.91;65.77
46690;BME280;32423;45.398;10.874;2022-12-07T15:47:22;100435.41;;;8.54;66.64
46690;BME280;32423;45.398;10.874;2022-12-07T15:50:08;100442.91;;;8.35;67.11
46690;BME280;32423;45.398;10.874;2022-12-07T15:52:52;100443.06;;;8.16;67.43
46690;BME280;32423;45.398;10.874;2022-12-07T15:55:40;100443.97;;;8.12;67.89
46690;BME280;32423;45.398;10.874;2022-12-07T15:58:25;100452.78;;;8.04;68.05
46690;BME280;32423;45.398;10.874;2022-12-07T16:01:10;100444.09;;;7.93;68.24
46690;BME280;32423;45.398;10.874;2022-12-07T16:03:56;100440.91;;;7.91;68.14
46690;BME280;32423;45.398;10.874;2022-12-07T16:06:41;100440.34;;;8.03;67.42
46690;BME280;32423;45.398;10.874;2022-12-07T16:09:25;100427.78;;;7.85;67.88
46690;BME280;32423;45.398;10.874;2022-12-07T16:12:11;100435.13;;;7.70;68.33
46690;BME280;32423;45.398;10.874;2022-12-07T16:14:56;100439.66;;;7.61;68.42
46690;BME280;32423;45.398;10.874;2022-12-07T16:17:40;100436.03;;;7.66;68.12
46690;BME280;32423;45.398;10.874;2022-12-07T16:20:25;100441.94;;;7.68;67.47
46690;BME280;32423;45.398;10.874;2022-12-07T16:23:11;100448.44;;;7.67;67.33
46690;BME280;32423;45.398;10.874;2022-12-07T16:26:02;100440.16;;;7.50;67.81
46690;BME280;32423;45.398;10.874;2022-12-07T16:28:51;100435.53;;;7.37;67.99
46690;BME280;32423;45.398;10.874;2022-12-07T16:31:36;100430.03;;;7.28;68.49
46690;BME280;32423;45.398;10.874;2022-12-07T16:34:20;100437.53;;;7.17;68.78
46690;BME280;32423;45.398;10.874;2022-12-07T16:37:05;100437.84;;;7.16;68.71
46690;BME280;32423;45.398;10.874;2022-12-07T16:39:49;100440.94;;;7.09;68.78
46690;BME280;32423;45.398;10.874;2022-12-07T16:42:34;100437.91;;;6.97;69.06
46690;BME280;32423;45.398;10.874;2022-12-07T16:45:20;100439.88;;;6.92;68.48
46690;BME280;32423;45.398;10.874;2022-12-07T16:48:05;100440.16;;;6.76;68.80
46690;BME280;32423;45.398;10.874;2022-12-07T16:50:51;100432.81;;;6.63;68.63
46690;BME280;32423;45.398;10.874;2022-12-07T16:53:40;100443.88;;;6.48;68.62
46690;BME280;32423;45.398;10.874;2022-12-07T16:56:29;100453.22;;;6.37;68.80
46690;BME280;32423;45.398;10.874;2022-12-07T16:59:18;100448.25;;;6.25;68.62
46690;BME280;32423;45.398;10.874;2022-12-07T17:44:26;100441.34;;;5.58;69.24
46690;BME280;32423;45.398;10.874;2022-12-07T17:48:14;100448.88;;;5.80;68.69
46690;BME280;32423;45.398;10.874;2022-12-07T17:51:00;100444.28;;;5.80;68.76
46690;BME280;32423;45.398;10.874;2022-12-07T17:54:03;100445.97;;;5.76;68.57
46690;BME280;32423;45.398;10.874;2022-12-07T17:56:56;100443.19;;;5.63;68.52
46690;BME280;32423;45.398;10.874;2022-12-07T17:59:41;100447.88;;;5.52;67.63
46690;BME280;32423;45.398;10.874;2022-12-07T18:02:26;100437.22;;;5.42;67.82
46690;BME280;32423;45.398;10.874;2022-12-07T18:05:11;100443.91;;;5.44;67.75
46690;BME280;32423;45.398;10.874;2022-12-07T18:07:55;100439.22;;;5.55;66.61
46690;BME280;32423;45.398;10.874;2022-12-07T18:10:40;100443.44;;;5.61;66.61
46690;BME280;32423;45.398;10.874;2022-12-07T18:13:24;100443.75;;;5.36;67.53
46690;BME280;32423;45.398;10.874;2022-12-07T18:16:26;100447.53;;;5.11;67.76
46690;BME280;32423;45.398;10.874;2022-12-07T18:19:11;100446.56;;;5.02;69.36
46690;BME280;32423;45.398;10.874;2022-12-07T18:21:57;100445.03;;;4.91;69.96
46690;BME280;32423;45.398;10.874;2022-12-07T18:24:42;100447.97;;;4.94;70.48
46690;BME280;32423;45.398;10.874;2022-12-07T18:27:26;100444.72;;;4.97;70.20
46690;BME280;32423;45.398;10.874;2022-12-07T18:30:11;100445.59;;;4.88;70.43